Wednesday, January 17, 2018, 7:09 PM EST
Back to Local

KMHT, Manchester Airport

Location: Manchester, NH, United States Lat: 42.933
Local Time: 7:09 PM EST ( 0:09 GMT) Lon: -71.433
Time Zone: US/Eastern Elev: 232 ft

Show me the last for .
Show Decoded

2018-01-17 19:00 METAR KMHT 180000Z 32005KT 3SM -SN BR BKN005 OVC035 M01/M02 A3008 RMK AO2 P0000
                 T10111017 =
2018-01-17 18:59 METAR KMHT 172359Z 32004KT 3SM -SN BR SCT005 OVC035 M01/M02 A3008 RMK AO2 P0000
                 T10111017 =
2018-01-17 18:53 METAR KMHT 172353Z 33003KT 3/4SM R35/P6000FT -SN BR SCT005 OVC035 M01/M02 A3008
                 RMK AO2 SFC VIS 2 1/2 SLP203 4/006 P0000 60005 T10111017 10006 21011 58009 =
2018-01-17 18:37 METAR KMHT 172337Z 32003KT 3/4SM R35/P6000FT -SN BR SCT005 OVC040 M01/M02 A3008
                 RMK AO2 SFC VIS 2 1/2 P0000 T10111017 =
2018-01-17 17:53 METAR KMHT 172253Z 33004KT 3/4SM R35/P6000FT -SN BR BKN005 OVC020 M01/M02 A3010
                 RMK AO2 SFC VIS 1 1/4 SLP210 P0002 T10111017 =
2018-01-17 16:53 METAR KMHT 172153Z 32004KT 3/4SM R35/P6000FT -SN BR BKN005 OVC010 M01/M02 A3010
                 RMK AO2 SLP212 P0001 T10061017 =
2018-01-17 16:50 METAR KMHT 172150Z 32004KT 1SM R35/P6000FT -SN BR BKN005 OVC010 M01/M02 A3010
                 RMK AO2 P0001 =
2018-01-17 15:58 METAR KMHT 172058Z 34004KT 4SM -SN BR OVC006 00/M02 A3011 RMK AO2 P0000
                 T00001017 =
2018-01-17 15:53 METAR KMHT 172053Z 34004KT 1SM R35/P6000FT -SN BR OVC006 00/M01 A3011 RMK AO2
                 SFC VIS 4 SLP215 P0000 60002 T00001011 56019 =
2018-01-17 15:31 METAR KMHT 172031Z 36003KT 1SM R35/P6000FT -SN BR BKN005 OVC010 00/M01 A3011 RMK
                 AO2 SFC VIS 2 P0000 T00001011 =
2018-01-17 14:53 METAR KMHT 171953Z 34003KT 3/4SM R35/4000V5000FT -SN BR OVC005 00/M01 A3013 RMK
                 AO2 TWR VIS 1 SLP221 P0002 T00001011 =
2018-01-17 14:37 METAR KMHT 171937Z 34004KT 3/4SM R35/5000VP6000FT -SN BR BKN005 OVC014 00/M01
                 A3013 RMK AO2 TWR VIS 1 P0001 T00001011 =
2018-01-17 14:03 METAR KMHT 171903Z 01005KT 1 3/4SM R35/5500VP6000FT -SN BR OVC008 00/M02 A3013
                 RMK AO2 TWR VIS 3 CIG 007V012 P0000 T00001017 =
2018-01-17 13:56 METAR KMHT 171856Z 01006KT 3SM -SN BR OVC008 00/M02 A3014 RMK AO2 SFC VIS 4
                 P0000 T00001017 =
2018-01-17 13:53 METAR KMHT 171853Z 01005KT 3/4SM R35/P6000FT -SN BR OVC008 00/M02 A3014 RMK AO2
                 SFC VIS 4 SLP224 P0000 T00001017 =
2018-01-17 13:38 METAR KMHT 171838Z 33004KT 3/4SM R35/P6000FT -SN BR BKN006 OVC013 00/M01 A3014
                 RMK AO2 SFC VIS 2 1/2 CIG 005V009 P0000 T00001011 =
2018-01-17 13:36 METAR KMHT 171836Z 34004KT 3/4SM R35/P6000FT -SN BR SCT006 OVC013 00/M01 A3014
                 RMK AO2 SFC VIS 2 P0000 T00001011 =
2018-01-17 12:53 METAR KMHT 171753Z 34004KT 3/4SM R35/4000V4500FT -SN BR OVC005 00/M02 A3017 RMK
                 AO2 SLP234 4/005 P0002 60005 T00001017 10000 21017 58037 =
2018-01-17 12:41 METAR KMHT 171741Z COR 34005KT 1/2SM R35/4000V5000FT SN FG BKN005 OVC019 00/M01
                 A3018 RMK AO2 TWR VIS 3/4 P0001 T00001011 =
2018-01-17 12:34 METAR KMHT 171734Z 01005KT 3/4SM R35/4000VP6000FT -SN BR SCT005 BKN010 OVC019
                 00/M02 A3018 RMK AO2 P0001 T00001017 =
2018-01-17 12:07 METAR KMHT 171707Z COR 34003KT 1/2SM R35/4000V5000FT SN FG SCT006 OVC015 00/M02
                 A3020 RMK AO2 TWR VIS 1 P0001 T00001017 =
2018-01-17 12:05 METAR KMHT 171705Z 34004KT 1/2SM R35/4000V5500FT -SN FG SCT006 OVC013 00/M02
                 A3020 RMK AO2 TWR VIS 1 P0001 T00001017 =
2018-01-17 11:53 METAR KMHT 171653Z 35003KT 3/4SM R35/5000VP6000FT -SN BR BKN006 OVC012 M01/M02
                 A3020 RMK AO2 TWR VIS 1 1/2 SLP247 P0000 T10061017 =
2018-01-17 11:12 METAR KMHT 171612Z 34004KT 1 1/2SM -SN BR BKN006 BKN027 OVC050 M01/M02 A3024 RMK
                 AO2 SFC VIS 2 P0000 T10061022 =
2018-01-17 11:04 METAR KMHT 171604Z 34004KT 1 1/2SM -SN BR SCT007 BKN027 OVC050 M01/M02 A3025 RMK
                 AO2 SFC VIS 2 1/2 P0000 T10111022 =
2018-01-17 10:56 METAR KMHT 171556Z 34004KT 1 1/2SM -SN BR FEW007 BKN037 OVC050 M01/M02 A3025 RMK
                 AO2 SFC VIS 2 P0000 T10111022 =
2018-01-17 10:53 METAR KMHT 171553Z 33004KT 1 1/2SM -SN BR SCT027 SCT034 OVC050 M01/M02 A3026 RMK
                 AO2 SFC VIS 1 3/4 SLP264 SNINCR 1/5 P0001 T10111022 =
2018-01-17 10:39 METAR KMHT 171539Z 34004KT 1 1/4SM R35/5500VP6000FT -SN BR SCT021 BKN029 OVC049
                 M01/M02 A3026 RMK AO2 TWR VIS 1 1/2 P0001 T10111022 =
2018-01-17 10:25 METAR KMHT 171525Z 35004KT 3/4SM R35/4000VP6000FT -SN BR FEW005 OVC018 M01/M03
                 A3026 RMK AO2 TWR VIS 1 P0001 T10111028 =
2018-01-17 09:53 METAR KMHT 171453Z 33004KT 1/2SM R35/4000V4500FT SN FZFG BKN005 OVC018 M01/M03
                 A3028 RMK AO2 TWR VIS 1 SLP271 SNINCR 1/4 P0001 60002 T10111028 56010 =
2018-01-17 09:40 METAR KMHT 171440Z 33003KT 3/4SM R35/4000V4500FT -SN BR OVC005 M01/M03 A3028 RMK
                 AO2 TWR VIS 1 P0001 T10111028 =
2018-01-17 09:11 METAR KMHT 171411Z 34005KT 1SM R35/P6000FT -SN BR BKN005 OVC016 M01/M02 A3028
                 RMK AO2 P0000 T10111022 =
2018-01-17 09:01 METAR KMHT 171401Z 36004KT 1SM R35/6000VP6000FT -SN BR FEW005 OVC016 M01/M02
                 A3028 RMK AO2 P0000 T10111022 =
2018-01-17 08:53 METAR KMHT 171353Z 35003KT 3/4SM R35/4000VP6000FT -SN BR OVC014 M01/M02 A3028
                 RMK AO2 TWR VIS 1 SLP272 P0000 T10111022 =
2018-01-17 08:43 METAR KMHT 171343Z 02004KT 3/4SM R35/3500V5000FT -SN BR OVC013 M01/M02 A3028 RMK
                 AO2 TWR VIS 1 P0000 T10111022 =
2018-01-17 07:53 METAR KMHT 171253Z 01004KT 1SM R35/P6000FT -SN BR OVC012 M02/M02 A3030 RMK AO2
                 SLP278 P0001 T10171022 =
2018-01-17 07:05 METAR KMHT 171205Z 36004KT 1SM R35/5000VP6000FT -SN BR OVC012 M02/M02 A3031 RMK
                 AO2 P0001 T10171022 =
2018-01-17 06:59 METAR KMHT 171159Z 01005KT 3/4SM R35/5000VP6000FT -SN BR OVC013 M02/M03 A3031
                 RMK AO2 TWR VIS 1 P0001 T10171028 =
2018-01-17 06:53 METAR KMHT 171153Z 01004KT 1SM R35/5000VP6000FT -SN BR OVC013 M02/M02 A3031 RMK
                 AO2 SLP282 4/003 P0001 60011 70015 T10171022 11011 21017 56010 =
2018-01-17 06:13 METAR KMHT 171113Z 34003KT 1SM R35/P6000FT -SN BR FEW007 OVC014 M01/M02 A3032
                 RMK AO2 P0001 T10111022 =
2018-01-17 06:00 METAR KMHT 171100Z VRB03KT 1SM R35/P6000FT -SN BR FEW007 OVC020 M01/M02 A3031
                 RMK AO2 P0001 T10111022 =
2018-01-17 05:53 METAR KMHT 171053Z 03003KT 1SM R35/P6000FT -SN BR FEW005 BKN014 OVC024 M01/M02
                 A3031 RMK AO2 SFC VIS 1 1/2 SLP283 P0001 T10111022 =
2018-01-17 04:53 METAR KMHT 170953Z 00000KT 1SM R35/P6000FT -SN BR SCT007 BKN014 OVC019 M01/M02
                 A3032 RMK AO2 SFC VIS 1 1/2 SLP287 P0001 T10111017 =
2018-01-17 03:53 METAR KMHT 170853Z 00000KT 1SM R35/P6000FT -SN BR SCT007 OVC014 M01/M02 A3034
                 RMK AO2 SLP292 SNINCR 1/2 P0002 60008 T10111017 58008 =
2018-01-17 02:53 METAR KMHT 170753Z 00000KT 1SM R35/P6000FT -SN BR FEW010 OVC014 M02/M02 A3035
                 RMK AO2 SLP297 P0003 T10171022 =
2018-01-17 01:53 METAR KMHT 170653Z 00000KT 1SM R35/P6000FT -SN BR FEW005 OVC014 M02/M02 A3036
                 RMK AO2 TWR VIS 2 SLP299 P0003 T10171022 =
2018-01-17 01:32 METAR KMHT 170632Z 00000KT 1SM R35/P6000FT -SN BR FEW005 OVC014 M02/M02 A3036
                 RMK AO2 TWR VIS 2 P0002 T10171022 =
2018-01-17 00:53 METAR KMHT 170553Z 00000KT 1 1/2SM -SN BR FEW008 SCT012 OVC019 M02/M03 A3036 RMK
                 AO2 TWR VIS 2 SLP300 4/001 P0002 60004 T10171028 11011 21017 57006 =
2018-01-17 00:47 METAR KMHT 170547Z 00000KT 1 1/2SM -SN BR FEW008 SCT012 OVC019 M02/M02 A3036 RMK
                 AO2 TWR VIS 3 P0002 =
2018-01-17 00:06 METAR KMHT 170506Z 00000KT 2SM -SN BR FEW008 SCT012 OVC028 M02/M02 A3037 RMK AO2
                 TWR VIS 3 P0001 T10171022 =
2018-01-16 23:53 METAR KMHT 170453Z 00000KT 2SM -SN BR SCT012 BKN019 OVC036 M02/M02 A3038 RMK AO2
                 TWR VIS 3 SLP306 P0001 T10171022 400001083 =
2018-01-16 23:47 METAR KMHT 170447Z 00000KT 2SM -SN BR SCT012 BKN019 OVC036 M02/M02 A3038 RMK AO2
                 TWR VIS 3 P0001 =
2018-01-16 22:53 METAR KMHT 170353Z 00000KT 2 1/2SM -SN BR FEW010 BKN036 OVC044 M02/M03 A3040 RMK
                 AO2 TWR VIS 3 SLP314 P0001 T10171028 =
2018-01-16 22:06 METAR KMHT 170306Z 00000KT 2 1/2SM -SN BR FEW010 OVC036 M01/M03 A3041 RMK AO2
                 TWR VIS 3 P0000 T10111028 =
2018-01-16 21:53 METAR KMHT 170253Z 00000KT 3SM -SN BR FEW010 BKN033 OVC045 M02/M03 A3041 RMK AO2
                 SLP317 P0000 60000 T10171028 58004 =
2018-01-16 21:26 METAR KMHT 170226Z 00000KT 3SM -SN BR FEW005 SCT010 OVC030 M02/M03 A3041 RMK AO2
                 P0000 T10171028 =
2018-01-16 20:53 METAR KMHT 170153Z 17004KT 2 1/2SM -SN BR OVC027 M02/M03 A3042 RMK AO2 TWR VIS 3
                 SLP322 P0000 T10171028 =
2018-01-16 20:09 METAR KMHT 170109Z 18004KT 2SM -SN BR OVC025 M02/M03 A3042 RMK AO2 TWR VIS 3
                 P0000 T10171033 =
2018-01-16 19:53 METAR KMHT 170053Z 18005KT 3SM -SN BR BKN030 OVC050 M02/M03 A3042 RMK AO2 SLP324
                 P0000 T10171033 =
2018-01-16 19:29 METAR KMHT 170029Z 16005KT 2SM -SN BR OVC020 M02/M04 A3042 RMK AO2 TWR VIS 4
                 P0000 T10171039 =
2018-01-16 19:19 METAR KMHT 170019Z 15006KT 4SM -SN BKN023 BKN050 OVC070 M01/M04 A3043 RMK AO2
                 P0000 T10111044 =

Support USWX by starting your Amazon purchase here.